createdAt,value
2023-03-06T00:01:04.620Z,1.26
2023-03-06T00:03:34.508Z,1.22
2023-03-06T00:06:03.891Z,1.17
2023-03-06T00:08:32.887Z,1.13
2023-03-06T00:11:01.880Z,1.10
2023-03-06T00:13:32.616Z,1.07
2023-03-06T00:16:01.820Z,1.03
2023-03-06T00:18:30.844Z,1.00
2023-03-06T00:20:59.966Z,1.00
2023-03-06T00:23:29.086Z,0.99
2023-03-06T00:25:58.048Z,0.98
2023-03-06T00:28:27.064Z,0.98
2023-03-06T00:30:55.977Z,0.97
2023-03-06T00:33:24.922Z,0.98
2023-03-06T00:35:56.023Z,0.96
2023-03-06T00:38:28.225Z,0.92
2023-03-06T00:40:58.081Z,0.88
2023-03-06T00:43:27.243Z,0.86
2023-03-06T00:45:56.446Z,0.85
2023-03-06T00:48:25.377Z,0.85
2023-03-06T00:50:54.722Z,0.86
2023-03-06T00:53:23.579Z,0.86
2023-03-06T00:55:52.745Z,0.84
2023-03-06T00:58:21.765Z,0.82
2023-03-06T01:00:51.020Z,0.83
2023-03-06T01:03:19.752Z,0.88
2023-03-06T01:05:48.585Z,0.95
2023-03-06T01:08:17.296Z,1.00
2023-03-06T01:10:46.237Z,1.05
2023-03-06T01:13:14.983Z,1.10
2023-03-06T01:15:43.948Z,1.13
2023-03-06T01:18:12.764Z,1.14
2023-03-06T01:20:41.588Z,1.16
2023-03-06T01:23:10.427Z,1.12
2023-03-06T01:25:39.337Z,1.06
2023-03-06T01:28:08.135Z,1.01
2023-03-06T01:30:37.745Z,0.98
2023-03-06T01:33:06.487Z,0.93
2023-03-06T01:35:38.214Z,0.90
2023-03-06T01:38:07.760Z,0.88
2023-03-06T01:40:39.168Z,0.83
2023-03-06T01:43:26.602Z,0.78
2023-03-06T01:46:29.192Z,0.74
2023-03-06T01:49:21.630Z,0.71
2023-03-06T01:52:00.936Z,0.68
2023-03-06T01:54:45.039Z,0.65
2023-03-06T01:57:20.985Z,0.66
2023-03-06T01:59:56.150Z,0.67
2023-03-06T02:02:27.059Z,0.72
2023-03-06T02:04:55.850Z,0.74
2023-03-06T02:07:25.340Z,0.75
2023-03-06T02:09:54.119Z,0.78
2023-03-06T02:12:25.786Z,0.83
2023-03-06T02:14:54.824Z,0.86
2023-03-06T02:17:24.855Z,0.87
2023-03-06T02:20:25.267Z,0.87
2023-03-06T02:23:53.839Z,0.88
2023-03-06T02:26:24.185Z,0.90
2023-03-06T02:28:52.961Z,0.90
2023-03-06T02:31:33.218Z,0.87
2023-03-06T02:34:04.507Z,0.84
2023-03-06T02:36:42.139Z,0.80
2023-03-06T02:39:11.565Z,0.77
2023-03-06T02:41:40.442Z,0.74
2023-03-06T02:44:09.385Z,0.70
2023-03-06T02:46:38.100Z,0.67
2023-03-06T02:49:06.902Z,0.64
2023-03-06T02:51:36.345Z,0.64
2023-03-06T02:54:05.077Z,0.62
2023-03-06T02:56:33.834Z,0.62
2023-03-06T02:59:02.836Z,0.64
2023-03-06T03:01:31.966Z,0.67
2023-03-06T03:04:00.765Z,0.71
2023-03-06T03:06:29.616Z,0.75
2023-03-06T03:08:59.278Z,0.79
2023-03-06T03:11:28.216Z,0.79
2023-03-06T03:13:57.301Z,0.79
2023-03-06T03:16:26.329Z,0.77
2023-03-06T03:18:58.114Z,0.76
2023-03-06T03:21:28.028Z,0.76
2023-03-06T03:23:57.254Z,0.77
2023-03-06T03:26:27.030Z,0.83
2023-03-06T03:29:00.968Z,0.91
2023-03-06T03:31:29.877Z,0.91
2023-03-06T03:33:59.073Z,0.89
2023-03-06T03:36:30.647Z,0.85
2023-03-06T03:38:59.521Z,0.82
2023-03-06T03:41:28.370Z,0.80
2023-03-06T03:43:57.518Z,0.80
2023-03-06T03:46:26.949Z,0.81
2023-03-06T03:48:56.771Z,0.81
2023-03-06T03:51:25.572Z,0.79
2023-03-06T03:53:57.239Z,0.76
2023-03-06T03:56:27.580Z,0.72
2023-03-06T03:59:09.961Z,0.69
2023-03-06T04:01:44.976Z,0.69
2023-03-06T04:04:13.829Z,0.77
2023-03-06T04:06:42.784Z,0.88
2023-03-06T04:09:11.851Z,1.03
2023-03-06T04:11:40.785Z,1.21
2023-03-06T04:14:10.029Z,1.38
2023-03-06T04:16:39.051Z,1.49
2023-03-06T04:19:08.120Z,1.59
2023-03-06T04:21:37.116Z,1.68
2023-03-06T04:24:07.172Z,1.76
2023-03-06T04:26:37.296Z,1.82
2023-03-06T04:29:06.403Z,1.88
2023-03-06T04:31:35.174Z,1.91
2023-03-06T04:34:04.579Z,1.91
2023-03-06T04:36:35.329Z,1.90
2023-03-06T04:39:07.772Z,1.90
2023-03-06T04:41:36.664Z,1.91
2023-03-06T04:44:05.797Z,1.92
2023-03-06T04:46:35.546Z,1.93
2023-03-06T04:49:04.582Z,1.89
2023-03-06T04:51:33.334Z,1.84
2023-03-06T04:54:02.016Z,1.78
2023-03-06T04:56:31.413Z,1.72
2023-03-06T04:58:59.982Z,1.66
2023-03-06T05:01:28.543Z,1.60
2023-03-06T05:03:57.138Z,1.50
2023-03-06T05:06:25.674Z,1.46
2023-03-06T05:08:54.295Z,1.40
2023-03-06T05:11:23.033Z,1.40
2023-03-06T05:13:51.943Z,1.28
2023-03-06T05:16:21.012Z,1.28
2023-03-06T05:18:50.772Z,1.27
2023-03-06T05:21:19.421Z,1.32
2023-03-06T05:23:47.970Z,1.36
2023-03-06T05:26:16.645Z,1.40
2023-03-06T05:28:45.275Z,1.42
2023-03-06T05:31:13.907Z,1.44
2023-03-06T05:33:42.337Z,1.47
2023-03-06T05:36:10.972Z,1.51
2023-03-06T05:38:39.429Z,1.54
2023-03-06T05:41:13.197Z,1.55
2023-03-06T05:43:42.291Z,1.58
2023-03-06T05:46:11.815Z,1.58
2023-03-06T05:48:40.612Z,1.58
2023-03-06T05:51:11.210Z,1.59
2023-03-06T05:53:39.768Z,1.61
2023-03-06T05:56:11.451Z,1.58
2023-03-06T05:58:40.267Z,1.58
2023-03-06T06:01:18.716Z,1.71
2023-03-06T06:03:47.625Z,1.73
2023-03-06T06:06:16.057Z,1.73
2023-03-06T06:08:44.599Z,1.77
2023-03-06T06:11:14.144Z,1.81
2023-03-06T06:13:42.622Z,1.88
2023-03-06T06:16:16.008Z,1.98
2023-03-06T06:18:44.887Z,2.08
2023-03-06T06:21:17.382Z,2.15
2023-03-06T06:23:46.335Z,2.21
2023-03-06T06:26:14.954Z,2.29
2023-03-06T06:28:43.469Z,2.38
2023-03-06T06:31:13.782Z,2.49
2023-03-06T06:33:42.357Z,2.54
2023-03-06T06:36:21.416Z,2.60
2023-03-06T06:38:54.071Z,2.64
2023-03-06T06:44:15.596Z,2.68
2023-03-06T06:49:34.476Z,2.83
2023-03-06T06:52:04.529Z,2.92
2023-03-06T06:54:35.095Z,3.03
2023-03-06T06:57:03.587Z,3.10
2023-03-06T06:59:32.082Z,3.22
2023-03-06T07:02:00.611Z,3.28
2023-03-06T07:04:29.117Z,3.38
2023-03-06T07:06:58.348Z,3.49
2023-03-06T07:09:26.821Z,3.70
2023-03-06T07:11:55.219Z,3.82
2023-03-06T07:14:23.695Z,3.88
2023-03-06T07:16:52.198Z,4.02
2023-03-06T07:19:20.798Z,4.03
2023-03-06T07:21:49.336Z,4.30
2023-03-06T07:24:17.863Z,4.49
2023-03-06T07:26:49.320Z,4.63
2023-03-06T07:29:17.713Z,4.67
2023-03-06T07:31:47.095Z,4.74
2023-03-06T07:34:16.413Z,4.91
2023-03-06T07:36:44.953Z,4.91
2023-03-06T07:39:13.485Z,5.00
2023-03-06T07:41:42.093Z,5.17
2023-03-06T07:44:10.597Z,5.24
2023-03-06T07:46:39.212Z,5.52
2023-03-06T07:49:07.794Z,5.57
2023-03-06T07:51:36.284Z,5.78
2023-03-06T07:54:04.775Z,5.90
2023-03-06T07:56:35.178Z,5.92
2023-03-06T07:59:03.833Z,5.84
2023-03-06T08:01:32.294Z,5.89
2023-03-06T08:04:02.119Z,5.89
2023-03-06T08:06:30.706Z,5.78
2023-03-06T08:08:59.767Z,5.61
2023-03-06T08:11:30.793Z,5.57
2023-03-06T08:14:00.766Z,5.72
2023-03-06T08:16:30.920Z,5.66
2023-03-06T08:18:59.821Z,5.30
2023-03-06T08:21:28.933Z,5.45
2023-03-06T08:23:57.601Z,5.46
2023-03-06T08:26:29.814Z,5.54
2023-03-06T08:29:01.138Z,5.62
2023-03-06T08:31:38.470Z,5.92
2023-03-06T08:34:12.727Z,6.45
2023-03-06T08:36:41.354Z,6.64
2023-03-06T08:39:10.447Z,6.71
2023-03-06T08:41:39.362Z,6.75
2023-03-06T08:44:08.113Z,6.46
2023-03-06T08:46:37.494Z,6.35
2023-03-06T08:49:06.009Z,6.62
2023-03-06T08:51:34.581Z,6.95
2023-03-06T08:54:03.381Z,7.37
2023-03-06T08:56:34.452Z,7.81
2023-03-06T08:59:05.821Z,8.14
2023-03-06T09:01:37.811Z,8.29
2023-03-06T09:04:10.910Z,8.35
2023-03-06T09:06:43.111Z,8.27
2023-03-06T09:09:12.751Z,8.05
2023-03-06T09:11:41.274Z,7.70
2023-03-06T09:14:09.799Z,7.81
2023-03-06T09:16:38.516Z,8.19
2023-03-06T09:19:07.285Z,7.97
2023-03-06T09:21:35.817Z,7.49
2023-03-06T09:24:04.563Z,7.79
2023-03-06T09:26:45.054Z,7.39
2023-03-06T09:29:16.471Z,7.45
2023-03-06T09:31:46.148Z,7.58
2023-03-06T09:34:14.784Z,8.30
2023-03-06T09:36:55.913Z,8.17
2023-03-06T09:39:26.462Z,7.88
2023-03-06T09:41:57.419Z,8.05
2023-03-06T09:44:32.431Z,8.52
2023-03-06T09:47:34.627Z,8.34
2023-03-06T09:50:44.847Z,8.29
2023-03-06T09:53:33.401Z,8.24
2023-03-06T09:56:18.242Z,8.46
2023-03-06T09:58:56.137Z,8.96
2023-03-06T10:01:28.559Z,8.71
2023-03-06T10:04:31.010Z,9.07
2023-03-06T10:07:25.641Z,9.37
2023-03-06T10:10:02.177Z,9.27
2023-03-06T10:12:41.365Z,8.62
2023-03-06T10:15:34.448Z,8.17
2023-03-06T10:18:04.088Z,7.81
2023-03-06T10:20:43.434Z,7.59
2023-03-06T10:23:47.850Z,7.38
2023-03-06T10:26:20.694Z,7.14
2023-03-06T10:29:13.560Z,7.13
2023-03-06T10:31:49.585Z,7.53
2023-03-06T10:34:33.195Z,7.88
2023-03-06T10:37:17.849Z,8.48
2023-03-06T10:39:48.597Z,8.31
2023-03-06T10:42:17.840Z,8.57
2023-03-06T10:44:46.263Z,8.55
2023-03-06T10:47:37.822Z,8.06
2023-03-06T10:50:30.759Z,8.65
2023-03-06T10:53:19.171Z,8.44
2023-03-06T10:56:09.971Z,8.41
2023-03-06T10:58:38.397Z,8.43
2023-03-06T11:01:29.168Z,8.32
2023-03-06T11:04:29.338Z,8.39
2023-03-06T11:07:14.604Z,8.18
2023-03-06T11:10:16.678Z,7.92
2023-03-06T11:12:56.654Z,7.62
2023-03-06T11:15:27.683Z,7.33
2023-03-06T11:18:07.897Z,7.18
2023-03-06T11:21:24.353Z,7.09
2023-03-06T11:23:54.620Z,7.25
2023-03-06T11:26:51.976Z,7.53
2023-03-06T11:29:42.585Z,7.47
2023-03-06T11:32:24.284Z,7.35
2023-03-06T11:34:59.428Z,7.47
2023-03-06T11:38:21.195Z,7.33
2023-03-06T11:41:00.425Z,7.15
2023-03-06T11:44:14.682Z,7.01
2023-03-06T11:46:53.129Z,6.97
2023-03-06T11:49:44.472Z,7.10
2023-03-06T11:52:23.953Z,6.97
2023-03-06T11:54:57.882Z,6.80
2023-03-06T11:57:39.650Z,6.85
2023-03-06T12:00:20.228Z,7.12
2023-03-06T12:03:09.676Z,7.27
2023-03-06T12:05:51.408Z,7.14
2023-03-06T12:08:40.187Z,7.28
2023-03-06T12:14:02.459Z,7.36
2023-03-06T12:16:48.986Z,7.41
2023-03-06T12:19:28.818Z,7.58
2023-03-06T12:22:21.589Z,7.85
2023-03-06T12:25:35.411Z,7.68
2023-03-06T12:28:34.355Z,7.91
2023-03-06T12:31:38.116Z,7.87
2023-03-06T12:34:12.484Z,7.91
2023-03-06T12:37:01.563Z,7.97
2023-03-06T12:40:11.033Z,7.86
2023-03-06T12:42:54.206Z,8.13
2023-03-06T12:45:37.224Z,8.05
2023-03-06T12:48:21.267Z,7.96
2023-03-06T12:50:50.683Z,8.02
2023-03-06T12:53:32.037Z,8.03
2023-03-06T12:56:02.709Z,8.03
2023-03-06T12:58:31.225Z,7.78
2023-03-06T13:01:27.449Z,7.99
2023-03-06T13:04:27.357Z,8.01
2023-03-06T13:07:35.499Z,8.34
2023-03-06T13:10:15.782Z,8.28
2023-03-06T13:13:24.173Z,8.51
2023-03-06T13:16:43.843Z,9.14
2023-03-06T13:19:26.669Z,8.70
2023-03-06T13:21:55.087Z,9.02
2023-03-06T13:24:24.769Z,8.89
2023-03-06T13:27:08.925Z,8.72
2023-03-06T13:29:37.395Z,8.51
2023-03-06T13:32:17.642Z,9.06
2023-03-06T13:34:50.244Z,8.52
2023-03-06T13:37:23.387Z,8.39
2023-03-06T13:40:00.466Z,8.38
2023-03-06T13:42:32.681Z,8.35
2023-03-06T13:45:44.990Z,8.30
2023-03-06T13:48:46.571Z,8.69
2023-03-06T13:51:27.347Z,8.62
2023-03-06T13:54:19.606Z,9.01
2023-03-06T13:57:48.520Z,9.33
2023-03-06T14:01:13.348Z,9.22
2023-03-06T14:04:18.467Z,9.57
2023-03-06T14:06:53.516Z,9.90
2023-03-06T14:09:32.842Z,10.32
2023-03-06T14:12:15.051Z,10.45
2023-03-06T14:14:50.969Z,9.84
2023-03-06T14:17:39.265Z,10.09
2023-03-06T14:20:17.984Z,10.72
2023-03-06T14:22:46.708Z,10.67
2023-03-06T14:25:31.517Z,11.19
2023-03-06T14:28:12.320Z,12.06
2023-03-06T14:30:51.259Z,12.38
2023-03-06T14:33:34.751Z,11.26
2023-03-06T14:36:09.816Z,9.75
2023-03-06T14:38:48.838Z,9.72
2023-03-06T14:41:32.945Z,9.24
2023-03-06T14:44:22.316Z,8.85
2023-03-06T14:46:57.341Z,8.46
2023-03-06T14:49:27.012Z,8.75
2023-03-06T14:52:00.735Z,9.62
2023-03-06T14:54:34.742Z,10.41
2023-03-06T14:57:13.024Z,10.86
2023-03-06T14:59:49.621Z,11.19
2023-03-06T15:02:23.611Z,11.51
2023-03-06T15:04:58.392Z,11.35
2023-03-06T15:07:33.063Z,11.54
2023-03-06T15:10:01.537Z,11.52
2023-03-06T15:12:38.808Z,11.57
2023-03-06T15:15:08.231Z,10.96
2023-03-06T15:17:45.393Z,11.01
2023-03-06T15:20:52.451Z,10.73
2023-03-06T15:23:35.593Z,10.17
2023-03-06T15:26:36.962Z,9.99
2023-03-06T15:29:11.489Z,9.94
2023-03-06T15:31:45.252Z,9.86
2023-03-06T15:34:23.782Z,9.64
2023-03-06T15:36:55.895Z,9.18
2023-03-06T15:39:33.182Z,8.72
2023-03-06T15:42:26.535Z,8.31
2023-03-06T15:44:58.223Z,7.73
2023-03-06T15:47:26.753Z,7.26
2023-03-06T15:49:55.543Z,6.73
2023-03-06T15:52:24.190Z,6.31
2023-03-06T15:54:52.783Z,5.94
2023-03-06T15:57:31.299Z,5.49
2023-03-06T16:00:01.606Z,5.07
2023-03-06T16:02:39.803Z,4.65
2023-03-06T16:05:18.735Z,4.19
2023-03-06T16:07:48.366Z,3.74
2023-03-06T16:10:20.974Z,3.36
2023-03-06T16:12:54.168Z,2.99
2023-03-06T16:15:30.904Z,2.71
2023-03-06T16:18:00.375Z,2.34
2023-03-06T16:20:29.851Z,2.05
2023-03-06T16:22:58.402Z,1.85
2023-03-06T16:25:28.418Z,1.78
2023-03-06T16:27:58.439Z,1.73
2023-03-06T16:30:35.502Z,1.62
2023-03-06T16:33:05.042Z,1.41
2023-03-06T16:35:33.588Z,1.23
2023-03-06T16:38:02.051Z,1.10
2023-03-06T16:40:37.767Z,0.98
2023-03-06T16:43:06.206Z,0.82
2023-03-06T16:45:41.073Z,0.67
2023-03-06T16:48:15.936Z,0.49
2023-03-06T16:50:45.446Z,0.32
2023-03-06T16:53:15.481Z,0.21
2023-03-06T16:55:44.286Z,0.14
2023-03-06T16:58:12.953Z,0.09
2023-03-06T17:00:41.665Z,0.02
2023-03-06T17:03:10.080Z,-0.05
2023-03-06T17:05:39.023Z,-0.08
2023-03-06T17:08:07.495Z,-0.09
2023-03-06T17:10:39.124Z,-0.15
2023-03-06T17:13:09.005Z,-0.23
2023-03-06T17:15:37.536Z,-0.35
2023-03-06T17:18:06.532Z,-0.44
2023-03-06T17:20:35.328Z,-0.47
2023-03-06T17:23:03.744Z,-0.50
2023-03-06T17:25:34.616Z,-0.54
2023-03-06T17:28:03.292Z,-0.52
2023-03-06T17:30:31.701Z,-0.42
2023-03-06T17:33:00.865Z,-0.35
2023-03-06T17:35:29.492Z,-0.35
2023-03-06T17:37:58.188Z,-0.39
2023-03-06T17:40:26.953Z,-0.45
2023-03-06T17:42:55.417Z,-0.50
2023-03-06T17:45:24.008Z,-0.51
2023-03-06T17:47:55.946Z,-0.49
2023-03-06T17:50:24.519Z,-0.54
2023-03-06T17:52:52.955Z,-0.70
2023-03-06T17:55:21.569Z,-0.88
2023-03-06T17:57:52.811Z,-1.05
2023-03-06T18:00:23.027Z,-1.13
2023-03-06T18:02:51.761Z,-1.19
2023-03-06T18:05:21.883Z,-1.18
2023-03-06T18:07:50.562Z,-1.17
2023-03-06T18:10:19.078Z,-1.15
2023-03-06T18:12:47.520Z,-1.09
2023-03-06T18:15:16.214Z,-0.96
2023-03-06T18:17:45.295Z,-0.86
2023-03-06T18:20:14.341Z,-0.74
2023-03-06T18:22:42.822Z,-0.69
2023-03-06T18:25:11.359Z,-0.63
2023-03-06T18:27:39.936Z,-0.62
2023-03-06T18:30:09.392Z,-0.72
2023-03-06T18:32:38.155Z,-0.90
2023-03-06T18:35:09.322Z,-0.95
2023-03-06T18:37:37.982Z,-0.92
2023-03-06T18:40:07.548Z,-0.91
2023-03-06T18:42:35.993Z,-0.85
2023-03-06T18:45:05.327Z,-0.91
2023-03-06T18:47:33.852Z,-1.00
2023-03-06T18:50:05.296Z,-1.10
2023-03-06T18:52:35.061Z,-1.16
2023-03-06T18:55:04.172Z,-1.22
2023-03-06T18:57:32.592Z,-1.24
2023-03-06T19:00:01.806Z,-1.27
2023-03-06T19:02:30.617Z,-1.29
2023-03-06T19:04:59.444Z,-1.35
2023-03-06T19:07:28.406Z,-1.35
2023-03-06T19:09:57.000Z,-1.33
2023-03-06T19:12:25.408Z,-1.37
2023-03-06T19:14:53.802Z,-1.41
2023-03-06T19:17:24.849Z,-1.44
2023-03-06T19:19:55.149Z,-1.45
2023-03-06T19:22:23.757Z,-1.44
2023-03-06T19:24:52.264Z,-1.43
2023-03-06T19:27:20.888Z,-1.45
2023-03-06T19:29:49.385Z,-1.48
2023-03-06T19:32:18.154Z,-1.52
2023-03-06T19:34:49.300Z,-1.57
2023-03-06T19:37:18.024Z,-1.60
2023-03-06T19:39:46.460Z,-1.63
2023-03-06T19:42:14.939Z,-1.67
2023-03-06T19:44:43.434Z,-1.67
2023-03-06T19:47:11.923Z,-1.65
2023-03-06T19:49:40.476Z,-1.65
2023-03-06T19:52:09.063Z,-1.65
2023-03-06T19:54:37.647Z,-1.63
2023-03-06T19:57:06.078Z,-1.63
2023-03-06T19:59:34.456Z,-1.64
2023-03-06T20:02:02.899Z,-1.61
2023-03-06T20:04:35.207Z,-1.62
2023-03-06T20:07:05.081Z,-1.65
2023-03-06T20:09:34.133Z,-1.65
2023-03-06T20:12:03.194Z,-1.59
2023-03-06T20:14:31.687Z,-1.55
2023-03-06T20:17:00.402Z,-1.52
2023-03-06T20:19:29.158Z,-1.48
2023-03-06T20:21:57.579Z,-1.49
2023-03-06T20:24:26.208Z,-1.52
2023-03-06T20:26:57.629Z,-1.53
2023-03-06T20:29:28.218Z,-1.53
2023-03-06T20:31:58.055Z,-1.55
2023-03-06T20:34:26.889Z,-1.58
2023-03-06T20:36:56.912Z,-1.59
2023-03-06T20:39:25.510Z,-1.58
2023-03-06T20:41:54.009Z,-1.55
2023-03-06T20:44:23.242Z,-1.53
2023-03-06T20:46:52.257Z,-1.45
2023-03-06T20:49:21.689Z,-1.34
2023-03-06T20:51:50.483Z,-1.21
2023-03-06T20:54:18.987Z,-1.10
2023-03-06T20:56:49.168Z,-0.99
2023-03-06T20:59:17.887Z,-0.84
2023-03-06T21:01:48.039Z,-0.71
2023-03-06T21:04:16.953Z,-0.67
2023-03-06T21:06:47.136Z,-0.73
2023-03-06T21:09:17.166Z,-0.82
2023-03-06T21:11:46.541Z,-0.83
2023-03-06T21:14:15.587Z,-0.80
2023-03-06T21:16:44.821Z,-0.82
2023-03-06T21:19:13.540Z,-0.77
2023-03-06T21:21:42.108Z,-0.67
2023-03-06T21:24:11.068Z,-0.61
2023-03-06T21:26:39.486Z,-0.58
2023-03-06T21:29:08.265Z,-0.56
2023-03-06T21:31:36.702Z,-0.53
2023-03-06T21:34:06.438Z,-0.51
2023-03-06T21:36:34.923Z,-0.53
2023-03-06T21:39:06.418Z,-0.57
2023-03-06T21:41:35.205Z,-0.56
2023-03-06T21:44:05.841Z,-0.53
2023-03-06T21:46:34.675Z,-0.46
2023-03-06T21:49:05.402Z,-0.34
2023-03-06T21:51:34.186Z,-0.25
2023-03-06T21:54:03.056Z,-0.24
2023-03-06T21:56:33.532Z,-0.27
2023-03-06T21:59:02.193Z,-0.36
2023-03-06T22:01:31.060Z,-0.52
2023-03-06T22:04:00.389Z,-0.66
2023-03-06T22:06:31.231Z,-0.73
2023-03-06T22:09:00.785Z,-0.73
2023-03-06T22:11:36.894Z,-0.71
2023-03-06T22:14:06.507Z,-0.70
2023-03-06T22:16:35.082Z,-0.68
2023-03-06T22:19:03.767Z,-0.74
2023-03-06T22:21:32.302Z,-0.83
2023-03-06T22:24:00.769Z,-0.91
2023-03-06T22:26:31.620Z,-0.94
2023-03-06T22:29:00.116Z,-0.96
2023-03-06T22:31:29.256Z,-1.03
2023-03-06T22:34:00.455Z,-1.07
2023-03-06T22:36:30.972Z,-1.07
2023-03-06T22:39:02.101Z,-1.05
2023-03-06T22:41:31.071Z,-1.02
2023-03-06T22:44:01.962Z,-0.94
2023-03-06T22:46:32.071Z,-0.87
2023-03-06T22:49:02.011Z,-0.84
2023-03-06T22:51:30.540Z,-0.82
2023-03-06T22:53:59.194Z,-0.79
2023-03-06T22:56:27.678Z,-0.73
2023-03-06T22:58:57.870Z,-0.67
2023-03-06T23:01:33.737Z,-0.61
2023-03-06T23:04:05.025Z,-0.53
2023-03-06T23:06:43.276Z,-0.47
2023-03-06T23:09:20.773Z,-0.44
2023-03-06T23:12:09.158Z,-0.43
2023-03-06T23:14:56.353Z,-0.42
2023-03-06T23:17:42.939Z,-0.30
2023-03-06T23:20:30.027Z,-0.18
2023-03-06T23:23:16.826Z,-0.05
2023-03-06T23:25:45.197Z,0.07
2023-03-06T23:28:13.720Z,0.15
2023-03-06T23:30:42.491Z,0.21
2023-03-06T23:33:11.660Z,0.25
2023-03-06T23:35:40.215Z,0.24
2023-03-06T23:38:08.711Z,0.21
2023-03-06T23:40:38.408Z,0.16
2023-03-06T23:43:06.913Z,0.16
2023-03-06T23:45:35.433Z,0.16
2023-03-06T23:48:08.053Z,0.10
2023-03-06T23:50:41.221Z,0.05
2023-03-06T23:53:09.728Z,-0.01
2023-03-06T23:55:49.919Z,-0.06
2023-03-06T23:58:19.943Z,-0.12
